sensor_id;sensor_type;location;lat;lon;timestamp;pressure;altitude;pressure_sealevel;temperature;humidity
42433;BME280;28071;48.232;20.668;2023-07-13T00:03:12;99377.09;;;18.44;100.00
42433;BME280;28071;48.232;20.668;2023-07-13T00:08:13;99373.84;;;18.42;100.00
42433;BME280;28071;48.232;20.668;2023-07-13T00:13:14;99380.31;;;18.41;100.00
42433;BME280;28071;48.232;20.668;2023-07-13T00:18:14;99386.00;;;18.29;100.00
42433;BME280;28071;48.232;20.668;2023-07-13T00:23:14;99378.97;;;18.28;100.00
42433;BME280;28071;48.232;20.668;2023-07-13T00:28:15;99385.97;;;18.35;100.00
42433;BME280;28071;48.232;20.668;2023-07-13T00:33:15;99358.81;;;18.26;100.00
42433;BME280;28071;48.232;20.668;2023-07-13T00:38:16;99383.31;;;18.29;100.00
42433;BME280;28071;48.232;20.668;2023-07-13T00:43:20;99377.09;;;18.34;100.00
42433;BME280;28071;48.232;20.668;2023-07-13T00:48:24;99301.53;;;18.00;100.00
42433;BME280;28071;48.232;20.668;2023-07-13T00:53:27;99364.16;;;18.41;100.00
42433;BME280;28071;48.232;20.668;2023-07-13T00:58:29;99327.84;;;18.18;100.00
42433;BME280;28071;48.232;20.668;2023-07-13T01:03:30;99358.75;;;18.41;100.00
42433;BME280;28071;48.232;20.668;2023-07-13T01:08:31;99357.16;;;18.45;100.00
42433;BME280;28071;48.232;20.668;2023-07-13T01:13:31;99479.41;;;18.60;100.00
42433;BME280;28071;48.232;20.668;2023-07-13T01:18:31;99445.19;;;18.75;100.00
42433;BME280;28071;48.232;20.668;2023-07-13T01:23:32;99427.41;;;18.74;100.00
42433;BME280;28071;48.232;20.668;2023-07-13T01:28:33;99407.13;;;18.87;100.00
42433;BME280;28071;48.232;20.668;2023-07-13T01:33:38;99407.09;;;18.97;100.00
42433;BME280;28071;48.232;20.668;2023-07-13T01:38:41;99392.78;;;19.07;100.00
42433;BME280;28071;48.232;20.668;2023-07-13T01:43:42;99392.41;;;19.19;100.00
42433;BME280;28071;48.232;20.668;2023-07-13T01:48:42;99376.06;;;19.05;100.00
42433;BME280;28071;48.232;20.668;2023-07-13T01:53:43;99340.22;;;19.04;100.00
42433;BME280;28071;48.232;20.668;2023-07-13T01:58:45;99338.25;;;19.15;100.00
42433;BME280;28071;48.232;20.668;2023-07-13T02:03:45;99407.53;;;19.20;100.00
42433;BME280;28071;48.232;20.668;2023-07-13T02:08:46;99416.44;;;19.15;100.00
42433;BME280;28071;48.232;20.668;2023-07-13T02:13:47;99369.91;;;18.94;100.00
42433;BME280;28071;48.232;20.668;2023-07-13T02:18:47;99355.63;;;18.94;100.00
42433;BME280;28071;48.232;20.668;2023-07-13T02:23:48;99342.16;;;18.89;100.00
42433;BME280;28071;48.232;20.668;2023-07-13T02:28:49;99343.47;;;19.01;100.00
42433;BME280;28071;48.232;20.668;2023-07-13T02:33:49;99314.09;;;19.00;100.00
42433;BME280;28071;48.232;20.668;2023-07-13T02:38:50;99297.56;;;19.11;100.00
42433;BME280;28071;48.232;20.668;2023-07-13T02:43:50;99287.56;;;19.17;100.00
42433;BME280;28071;48.232;20.668;2023-07-13T02:48:51;99277.88;;;19.16;100.00
42433;BME280;28071;48.232;20.668;2023-07-13T02:53:53;99260.78;;;19.26;100.00
42433;BME280;28071;48.232;20.668;2023-07-13T02:58:54;99237.19;;;19.12;100.00
42433;BME280;28071;48.232;20.668;2023-07-13T03:03:55;99251.38;;;19.28;100.00
42433;BME280;28071;48.232;20.668;2023-07-13T03:08:56;99231.81;;;19.12;100.00
42433;BME280;28071;48.232;20.668;2023-07-13T03:13:57;99278.25;;;19.38;100.00
42433;BME280;28071;48.232;20.668;2023-07-13T03:18:57;99313.28;;;19.38;100.00
42433;BME280;28071;48.232;20.668;2023-07-13T03:23:58;99298.19;;;19.37;100.00
42433;BME280;28071;48.232;20.668;2023-07-13T03:28:58;99277.56;;;19.23;100.00
42433;BME280;28071;48.232;20.668;2023-07-13T03:33:59;99303.09;;;19.35;100.00
42433;BME280;28071;48.232;20.668;2023-07-13T03:39:01;99254.97;;;19.13;100.00
42433;BME280;28071;48.232;20.668;2023-07-13T03:44:02;99294.50;;;19.28;100.00
42433;BME280;28071;48.232;20.668;2023-07-13T03:49:04;99264.75;;;19.04;100.00
42433;BME280;28071;48.232;20.668;2023-07-13T03:54:05;99266.91;;;19.02;100.00
42433;BME280;28071;48.232;20.668;2023-07-13T03:59:06;99299.13;;;19.23;100.00
42433;BME280;28071;48.232;20.668;2023-07-13T04:04:06;99297.25;;;19.18;100.00
42433;BME280;28071;48.232;20.668;2023-07-13T04:09:08;99306.28;;;19.37;100.00
42433;BME280;28071;48.232;20.668;2023-07-13T04:14:09;99319.31;;;19.25;100.00
42433;BME280;28071;48.232;20.668;2023-07-13T04:19:10;99304.22;;;19.24;100.00
42433;BME280;28071;48.232;20.668;2023-07-13T04:24:10;99310.63;;;19.33;100.00
42433;BME280;28071;48.232;20.668;2023-07-13T04:29:11;99314.06;;;19.44;100.00
42433;BME280;28071;48.232;20.668;2023-07-13T04:34:11;99325.56;;;19.55;100.00
42433;BME280;28071;48.232;20.668;2023-07-13T04:39:12;99316.59;;;19.70;100.00
42433;BME280;28071;48.232;20.668;2023-07-13T04:44:12;99328.44;;;19.74;100.00
42433;BME280;28071;48.232;20.668;2023-07-13T04:49:13;99322.97;;;19.79;100.00
42433;BME280;28071;48.232;20.668;2023-07-13T04:54:13;99327.34;;;20.04;100.00
42433;BME280;28071;48.232;20.668;2023-07-13T04:59:14;99340.06;;;20.27;100.00
42433;BME280;28071;48.232;20.668;2023-07-13T05:04:14;99320.75;;;20.39;100.00
42433;BME280;28071;48.232;20.668;2023-07-13T05:09:15;99339.63;;;20.68;100.00
42433;BME280;28071;48.232;20.668;2023-07-13T05:14:15;99331.31;;;20.83;100.00
42433;BME280;28071;48.232;20.668;2023-07-13T05:19:16;99354.88;;;21.01;100.00
42433;BME280;28071;48.232;20.668;2023-07-13T05:24:17;99341.25;;;20.88;100.00
42433;BME280;28071;48.232;20.668;2023-07-13T05:29:17;99361.25;;;21.11;100.00
42433;BME280;28071;48.232;20.668;2023-07-13T05:34:17;99365.53;;;21.12;100.00
42433;BME280;28071;48.232;20.668;2023-07-13T05:39:18;99376.81;;;21.19;100.00
42433;BME280;28071;48.232;20.668;2023-07-13T05:44:19;99354.00;;;21.25;100.00
42433;BME280;28071;48.232;20.668;2023-07-13T05:49:19;99371.03;;;21.25;100.00
42433;BME280;28071;48.232;20.668;2023-07-13T05:54:20;99359.78;;;21.18;100.00
42433;BME280;28071;48.232;20.668;2023-07-13T05:59:20;99350.75;;;21.28;100.00
42433;BME280;28071;48.232;20.668;2023-07-13T06:04:21;99311.84;;;21.24;100.00
42433;BME280;28071;48.232;20.668;2023-07-13T06:09:21;99307.28;;;21.57;100.00
42433;BME280;28071;48.232;20.668;2023-07-13T06:14:21;99264.34;;;21.50;100.00
42433;BME280;28071;48.232;20.668;2023-07-13T06:19:22;99306.06;;;21.96;100.00
42433;BME280;28071;48.232;20.668;2023-07-13T06:24:22;99328.22;;;21.98;100.00
42433;BME280;28071;48.232;20.668;2023-07-13T06:29:23;99329.72;;;21.90;100.00
42433;BME280;28071;48.232;20.668;2023-07-13T06:34:23;99331.00;;;21.79;100.00
42433;BME280;28071;48.232;20.668;2023-07-13T06:39:24;99308.06;;;21.57;100.00
42433;BME280;28071;48.232;20.668;2023-07-13T06:44:24;99332.06;;;21.45;100.00
42433;BME280;28071;48.232;20.668;2023-07-13T06:49:25;99322.56;;;21.48;100.00
42433;BME280;28071;48.232;20.668;2023-07-13T06:54:26;99324.84;;;21.41;100.00
42433;BME280;28071;48.232;20.668;2023-07-13T06:59:27;99282.06;;;21.24;100.00
42433;BME280;28071;48.232;20.668;2023-07-13T07:04:27;99325.84;;;21.45;100.00
42433;BME280;28071;48.232;20.668;2023-07-13T07:09:28;99287.63;;;21.14;100.00
42433;BME280;28071;48.232;20.668;2023-07-13T07:14:30;99282.88;;;21.05;100.00
42433;BME280;28071;48.232;20.668;2023-07-13T07:19:30;99292.09;;;21.04;100.00
42433;BME280;28071;48.232;20.668;2023-07-13T07:24:31;99276.09;;;20.89;100.00
42433;BME280;28071;48.232;20.668;2023-07-13T07:29:32;99283.16;;;20.85;100.00
42433;BME280;28071;48.232;20.668;2023-07-13T07:34:32;99281.31;;;20.62;100.00
42433;BME280;28071;48.232;20.668;2023-07-13T07:39:32;99306.94;;;20.88;100.00
42433;BME280;28071;48.232;20.668;2023-07-13T07:44:33;99321.13;;;20.56;100.00
42433;BME280;28071;48.232;20.668;2023-07-13T07:49:35;99307.13;;;20.25;100.00
42433;BME280;28071;48.232;20.668;2023-07-13T07:54:35;99331.16;;;20.27;100.00
42433;BME280;28071;48.232;20.668;2023-07-13T07:59:37;99310.81;;;20.34;100.00
42433;BME280;28071;48.232;20.668;2023-07-13T08:04:38;99311.31;;;20.36;100.00
42433;BME280;28071;48.232;20.668;2023-07-13T08:09:38;99281.28;;;20.19;100.00
42433;BME280;28071;48.232;20.668;2023-07-13T08:14:39;99278.16;;;20.31;100.00
42433;BME280;28071;48.232;20.668;2023-07-13T08:19:39;99231.38;;;20.35;100.00
42433;BME280;28071;48.232;20.668;2023-07-13T08:24:40;99137.56;;;20.03;100.00
42433;BME280;28071;48.232;20.668;2023-07-13T08:29:42;99199.69;;;20.22;100.00
42433;BME280;28071;48.232;20.668;2023-07-13T08:34:43;99235.72;;;20.12;100.00
42433;BME280;28071;48.232;20.668;2023-07-13T08:39:44;99163.38;;;20.09;100.00
42433;BME280;28071;48.232;20.668;2023-07-13T08:50:17;99161.25;;;20.87;100.00
42433;BME280;28071;48.232;20.668;2023-07-13T08:55:31;99164.25;;;20.66;100.00
42433;BME280;28071;48.232;20.668;2023-07-13T09:01:24;99175.44;;;20.60;100.00
42433;BME280;28071;48.232;20.668;2023-07-13T09:06:06;99227.41;;;20.70;100.00
42433;BME280;28071;48.232;20.668;2023-07-13T09:16:41;99230.50;;;20.83;100.00
42433;BME280;28071;48.232;20.668;2023-07-13T09:21:44;99261.38;;;21.14;100.00
42433;BME280;28071;48.232;20.668;2023-07-13T09:26:45;99254.38;;;21.13;100.00
42433;BME280;28071;48.232;20.668;2023-07-13T09:31:50;99265.66;;;21.53;100.00
42433;BME280;28071;48.232;20.668;2023-07-13T09:36:53;99308.44;;;22.30;100.00
42433;BME280;28071;48.232;20.668;2023-07-13T09:42:16;99294.59;;;22.45;100.00
42433;BME280;28071;48.232;20.668;2023-07-13T09:47:22;99299.63;;;23.02;100.00
42433;BME280;28071;48.232;20.668;2023-07-13T09:52:24;99328.41;;;23.92;100.00
42433;BME280;28071;48.232;20.668;2023-07-13T09:57:26;99306.19;;;24.21;100.00
42433;BME280;28071;48.232;20.668;2023-07-13T10:02:34;99279.91;;;24.08;100.00
42433;BME280;28071;48.232;20.668;2023-07-13T10:07:38;99296.94;;;24.88;100.00
42433;BME280;28071;48.232;20.668;2023-07-13T10:12:39;99311.56;;;25.27;100.00
42433;BME280;28071;48.232;20.668;2023-07-13T10:17:40;99274.38;;;25.31;100.00
42433;BME280;28071;48.232;20.668;2023-07-13T10:22:52;99286.06;;;25.49;100.00
42433;BME280;28071;48.232;20.668;2023-07-13T10:28:43;99284.66;;;25.25;100.00
42433;BME280;28071;48.232;20.668;2023-07-13T10:33:18;99264.25;;;25.66;100.00
42433;BME280;28071;48.232;20.668;2023-07-13T10:38:22;99271.63;;;25.74;100.00
42433;BME280;28071;48.232;20.668;2023-07-13T10:43:33;99280.69;;;25.95;100.00
42433;BME280;28071;48.232;20.668;2023-07-13T10:48:39;99223.22;;;25.80;100.00
42433;BME280;28071;48.232;20.668;2023-07-13T10:53:40;99269.16;;;26.28;100.00
42433;BME280;28071;48.232;20.668;2023-07-13T10:58:42;99248.44;;;26.36;100.00
42433;BME280;28071;48.232;20.668;2023-07-13T11:18:52;99251.75;;;27.33;100.00
42433;BME280;28071;48.232;20.668;2023-07-13T11:24:01;99240.78;;;27.54;93.81
42433;BME280;28071;48.232;20.668;2023-07-13T11:29:09;99247.47;;;27.45;91.91
42433;BME280;28071;48.232;20.668;2023-07-13T11:34:15;99228.06;;;27.58;84.68
42433;BME280;28071;48.232;20.668;2023-07-13T11:39:17;99287.03;;;28.05;87.78
42433;BME280;28071;48.232;20.668;2023-07-13T11:44:20;99285.91;;;27.73;89.36
42433;BME280;28071;48.232;20.668;2023-07-13T11:49:26;99294.78;;;26.95;92.30
42433;BME280;28071;48.232;20.668;2023-07-13T11:54:29;99260.41;;;26.73;92.91
42433;BME280;28071;48.232;20.668;2023-07-13T11:59:30;99288.19;;;27.37;94.06
42433;BME280;28071;48.232;20.668;2023-07-13T12:04:33;99252.59;;;27.46;92.30
42433;BME280;28071;48.232;20.668;2023-07-13T12:09:34;99273.25;;;27.35;92.18
42433;BME280;28071;48.232;20.668;2023-07-13T12:14:36;99285.28;;;27.22;94.13
42433;BME280;28071;48.232;20.668;2023-07-13T12:19:37;99290.97;;;26.87;96.61
42433;BME280;28071;48.232;20.668;2023-07-13T12:24:38;99255.59;;;26.49;99.83
42433;BME280;28071;48.232;20.668;2023-07-13T12:29:49;99282.34;;;26.55;100.00
42433;BME280;28071;48.232;20.668;2023-07-13T12:35:15;99254.13;;;26.51;100.00
42433;BME280;28071;48.232;20.668;2023-07-13T12:40:17;99251.06;;;26.23;100.00
42433;BME280;28071;48.232;20.668;2023-07-13T12:45:22;99245.25;;;26.34;100.00
42433;BME280;28071;48.232;20.668;2023-07-13T12:50:29;99242.59;;;26.75;99.91
42433;BME280;28071;48.232;20.668;2023-07-13T12:55:30;99244.84;;;27.93;98.99
42433;BME280;28071;48.232;20.668;2023-07-13T13:00:36;99242.47;;;28.65;92.28
42433;BME280;28071;48.232;20.668;2023-07-13T13:05:39;99250.91;;;29.00;86.30
42433;BME280;28071;48.232;20.668;2023-07-13T13:10:40;99235.91;;;28.94;87.72
42433;BME280;28071;48.232;20.668;2023-07-13T13:15:40;99181.72;;;29.16;84.12
42433;BME280;28071;48.232;20.668;2023-07-13T13:20:41;99200.00;;;29.12;83.63
42433;BME280;28071;48.232;20.668;2023-07-13T13:25:41;99225.91;;;29.30;83.36
42433;BME280;28071;48.232;20.668;2023-07-13T13:30:43;99193.91;;;29.62;78.97
42433;BME280;28071;48.232;20.668;2023-07-13T13:35:43;99205.22;;;30.08;78.97
42433;BME280;28071;48.232;20.668;2023-07-13T13:40:45;99186.81;;;29.77;76.96
42433;BME280;28071;48.232;20.668;2023-07-13T13:45:46;99213.28;;;30.52;74.57
42433;BME280;28071;48.232;20.668;2023-07-13T13:50:48;99186.81;;;30.44;73.43
42433;BME280;28071;48.232;20.668;2023-07-13T13:55:50;99228.31;;;29.75;77.51
42433;BME280;28071;48.232;20.668;2023-07-13T14:00:51;99233.84;;;28.91;80.91
42433;BME280;28071;48.232;20.668;2023-07-13T14:05:52;99223.63;;;28.64;81.68
42433;BME280;28071;48.232;20.668;2023-07-13T14:10:55;99202.16;;;27.89;81.26
42433;BME280;28071;48.232;20.668;2023-07-13T14:15:57;99207.38;;;27.94;80.59
42433;BME280;28071;48.232;20.668;2023-07-13T14:20:57;99222.97;;;27.93;80.56
42433;BME280;28071;48.232;20.668;2023-07-13T14:25:58;99213.66;;;27.82;83.02
42433;BME280;28071;48.232;20.668;2023-07-13T14:30:58;99226.16;;;28.57;80.98
42433;BME280;28071;48.232;20.668;2023-07-13T14:35:59;99215.16;;;28.81;78.28
42433;BME280;28071;48.232;20.668;2023-07-13T14:40:59;99235.25;;;29.41;75.85
42433;BME280;28071;48.232;20.668;2023-07-13T14:46:00;99244.41;;;29.77;76.54
42433;BME280;28071;48.232;20.668;2023-07-13T14:51:00;99246.09;;;29.66;74.09
42433;BME280;28071;48.232;20.668;2023-07-13T14:56:01;99236.34;;;30.00;73.43
42433;BME280;28071;48.232;20.668;2023-07-13T15:01:01;99220.28;;;30.49;72.65
42433;BME280;28071;48.232;20.668;2023-07-13T15:06:02;99215.81;;;30.60;72.73
42433;BME280;28071;48.232;20.668;2023-07-13T15:11:03;99190.19;;;30.02;72.62
42433;BME280;28071;48.232;20.668;2023-07-13T15:16:12;99229.03;;;29.88;70.70
42433;BME280;28071;48.232;20.668;2023-07-13T15:21:19;99229.56;;;30.25;67.80
42433;BME280;28071;48.232;20.668;2023-07-13T15:26:20;99266.06;;;30.45;68.46
42433;BME280;28071;48.232;20.668;2023-07-13T15:31:25;99274.09;;;30.70;64.68
42433;BME280;28071;48.232;20.668;2023-07-13T15:36:29;99285.00;;;29.71;68.29
42433;BME280;28071;48.232;20.668;2023-07-13T15:41:31;99289.69;;;29.43;69.95
42433;BME280;28071;48.232;20.668;2023-07-13T15:46:32;99281.78;;;29.53;68.54
42433;BME280;28071;48.232;20.668;2023-07-13T15:51:34;99309.38;;;29.33;69.79
42433;BME280;28071;48.232;20.668;2023-07-13T15:56:36;99321.78;;;28.90;69.93
42433;BME280;28071;48.232;20.668;2023-07-13T16:01:39;99339.69;;;28.99;71.46
42433;BME280;28071;48.232;20.668;2023-07-13T16:06:42;99354.50;;;28.86;69.13
42433;BME280;28071;48.232;20.668;2023-07-13T16:11:42;99366.13;;;28.22;74.10
42433;BME280;28071;48.232;20.668;2023-07-13T16:16:43;99385.59;;;27.87;75.44
42433;BME280;28071;48.232;20.668;2023-07-13T16:21:46;99322.41;;;27.56;76.56
42433;BME280;28071;48.232;20.668;2023-07-13T16:26:49;99355.09;;;27.85;76.62
42433;BME280;28071;48.232;20.668;2023-07-13T16:37:06;99330.31;;;27.16;81.85
42433;BME280;28071;48.232;20.668;2023-07-13T16:42:12;99348.16;;;27.13;82.31
42433;BME280;28071;48.232;20.668;2023-07-13T16:47:14;99295.16;;;26.64;82.45
42433;BME280;28071;48.232;20.668;2023-07-13T16:52:17;99320.69;;;26.59;87.30
42433;BME280;28071;48.232;20.668;2023-07-13T16:57:25;99337.16;;;26.71;82.98
42433;BME280;28071;48.232;20.668;2023-07-13T17:02:35;99342.72;;;26.54;83.38
42433;BME280;28071;48.232;20.668;2023-07-13T17:07:36;99344.44;;;26.59;83.99
42433;BME280;28071;48.232;20.668;2023-07-13T17:12:37;99343.56;;;26.46;84.74
42433;BME280;28071;48.232;20.668;2023-07-13T17:17:38;99302.28;;;26.09;93.48
42433;BME280;28071;48.232;20.668;2023-07-13T17:22:42;99321.88;;;26.03;97.41
42433;BME280;28071;48.232;20.668;2023-07-13T17:27:45;99356.38;;;25.90;99.27
42433;BME280;28071;48.232;20.668;2023-07-13T17:32:48;99355.59;;;25.55;100.00
42433;BME280;28071;48.232;20.668;2023-07-13T17:37:54;99363.28;;;25.27;100.00
42433;BME280;28071;48.232;20.668;2023-07-13T17:42:55;99378.03;;;25.34;100.00
42433;BME280;28071;48.232;20.668;2023-07-13T17:47:58;99356.00;;;24.87;100.00
42433;BME280;28071;48.232;20.668;2023-07-13T17:53:22;99382.00;;;24.62;100.00
42433;BME280;28071;48.232;20.668;2023-07-13T17:58:22;99376.25;;;24.64;100.00
42433;BME280;28071;48.232;20.668;2023-07-13T18:03:26;99397.97;;;24.55;100.00
42433;BME280;28071;48.232;20.668;2023-07-13T18:08:34;99387.44;;;23.78;100.00
42433;BME280;28071;48.232;20.668;2023-07-13T18:13:34;99390.19;;;23.64;100.00
42433;BME280;28071;48.232;20.668;2023-07-13T18:18:40;99385.53;;;23.06;100.00
42433;BME280;28071;48.232;20.668;2023-07-13T18:23:40;99408.31;;;22.78;100.00
42433;BME280;28071;48.232;20.668;2023-07-13T18:28:42;99408.28;;;22.23;100.00
42433;BME280;28071;48.232;20.668;2023-07-13T18:33:42;99409.25;;;21.94;100.00
42433;BME280;28071;48.232;20.668;2023-07-13T18:38:43;99411.41;;;21.78;100.00
42433;BME280;28071;48.232;20.668;2023-07-13T18:43:45;99417.78;;;21.69;100.00
42433;BME280;28071;48.232;20.668;2023-07-13T18:48:48;99415.59;;;21.33;100.00
42433;BME280;28071;48.232;20.668;2023-07-13T18:53:49;99444.88;;;21.26;100.00
42433;BME280;28071;48.232;20.668;2023-07-13T18:58:50;99440.94;;;20.94;100.00
42433;BME280;28071;48.232;20.668;2023-07-13T19:03:50;99445.72;;;20.78;100.00
42433;BME280;28071;48.232;20.668;2023-07-13T19:08:51;99447.31;;;20.56;100.00
42433;BME280;28071;48.232;20.668;2023-07-13T19:13:52;99439.38;;;20.35;100.00
42433;BME280;28071;48.232;20.668;2023-07-13T19:18:54;99432.03;;;20.41;100.00
42433;BME280;28071;48.232;20.668;2023-07-13T19:23:55;99453.66;;;20.41;100.00
42433;BME280;28071;48.232;20.668;2023-07-13T19:28:57;99458.34;;;20.25;100.00
42433;BME280;28071;48.232;20.668;2023-07-13T19:34:05;99394.97;;;19.88;100.00
42433;BME280;28071;48.232;20.668;2023-07-13T19:39:36;99454.13;;;20.19;100.00
42433;BME280;28071;48.232;20.668;2023-07-13T19:44:42;99466.81;;;20.18;100.00
42433;BME280;28071;48.232;20.668;2023-07-13T19:49:43;99453.97;;;20.00;100.00
42433;BME280;28071;48.232;20.668;2023-07-13T19:54:48;99456.78;;;19.85;100.00
42433;BME280;28071;48.232;20.668;2023-07-13T19:59:54;99474.28;;;19.92;100.00
42433;BME280;28071;48.232;20.668;2023-07-13T20:04:57;99467.16;;;19.73;100.00
42433;BME280;28071;48.232;20.668;2023-07-13T20:09:58;99475.84;;;19.59;100.00
42433;BME280;28071;48.232;20.668;2023-07-13T20:14:58;99478.53;;;19.54;100.00
42433;BME280;28071;48.232;20.668;2023-07-13T20:20:00;99482.63;;;19.47;100.00
42433;BME280;28071;48.232;20.668;2023-07-13T20:25:00;99479.69;;;19.43;100.00
42433;BME280;28071;48.232;20.668;2023-07-13T20:30:01;99482.13;;;19.39;100.00
42433;BME280;28071;48.232;20.668;2023-07-13T20:35:01;99467.44;;;19.06;100.00
42433;BME280;28071;48.232;20.668;2023-07-13T20:40:04;99495.44;;;19.16;100.00
42433;BME280;28071;48.232;20.668;2023-07-13T20:45:11;99501.41;;;19.12;100.00
42433;BME280;28071;48.232;20.668;2023-07-13T20:50:24;99476.94;;;18.83;100.00
42433;BME280;28071;48.232;20.668;2023-07-13T20:55:28;99506.03;;;18.97;100.00
42433;BME280;28071;48.232;20.668;2023-07-13T21:00:29;99493.09;;;18.89;100.00
42433;BME280;28071;48.232;20.668;2023-07-13T21:05:40;99520.56;;;18.96;100.00
42433;BME280;28071;48.232;20.668;2023-07-13T21:10:41;99518.13;;;18.99;100.00
42433;BME280;28071;48.232;20.668;2023-07-13T21:15:44;99529.16;;;19.13;100.00
42433;BME280;28071;48.232;20.668;2023-07-13T21:20:48;99543.41;;;19.24;100.00
42433;BME280;28071;48.232;20.668;2023-07-13T21:25:55;99545.88;;;19.15;100.00
42433;BME280;28071;48.232;20.668;2023-07-13T21:31:02;99486.38;;;18.81;100.00
42433;BME280;28071;48.232;20.668;2023-07-13T21:36:05;99540.19;;;19.17;100.00
42433;BME280;28071;48.232;20.668;2023-07-13T21:41:25;99535.09;;;19.10;100.00
42433;BME280;28071;48.232;20.668;2023-07-13T21:46:28;99504.13;;;18.92;100.00
42433;BME280;28071;48.232;20.668;2023-07-13T21:51:32;99531.91;;;18.88;100.00
42433;BME280;28071;48.232;20.668;2023-07-13T21:56:34;99550.50;;;18.79;100.00
42433;BME280;28071;48.232;20.668;2023-07-13T22:01:34;99534.06;;;18.60;100.00
42433;BME280;28071;48.232;20.668;2023-07-13T22:06:36;99531.13;;;18.51;100.00
42433;BME280;28071;48.232;20.668;2023-07-13T22:11:37;99473.78;;;18.15;100.00
42433;BME280;28071;48.232;20.668;2023-07-13T22:16:38;99565.31;;;18.51;100.00
42433;BME280;28071;48.232;20.668;2023-07-13T22:21:39;99555.63;;;18.40;100.00
42433;BME280;28071;48.232;20.668;2023-07-13T22:26:39;99527.03;;;18.13;100.00
42433;BME280;28071;48.232;20.668;2023-07-13T22:31:41;99566.09;;;18.26;100.00
42433;BME280;28071;48.232;20.668;2023-07-13T22:36:42;99563.41;;;18.21;100.00
42433;BME280;28071;48.232;20.668;2023-07-13T22:41:43;99578.50;;;18.22;100.00
42433;BME280;28071;48.232;20.668;2023-07-13T22:46:43;99559.91;;;18.15;100.00
42433;BME280;28071;48.232;20.668;2023-07-13T22:51:44;99563.69;;;18.14;100.00
42433;BME280;28071;48.232;20.668;2023-07-13T22:56:44;99568.50;;;18.07;100.00
42433;BME280;28071;48.232;20.668;2023-07-13T23:01:45;99573.34;;;18.00;100.00
42433;BME280;28071;48.232;20.668;2023-07-13T23:06:46;99567.34;;;17.83;100.00
42433;BME280;28071;48.232;20.668;2023-07-13T23:11:53;99562.75;;;17.73;100.00
42433;BME280;28071;48.232;20.668;2023-07-13T23:16:55;99552.63;;;17.33;100.00
42433;BME280;28071;48.232;20.668;2023-07-13T23:21:59;99585.22;;;17.52;100.00
42433;BME280;28071;48.232;20.668;2023-07-13T23:27:00;99572.31;;;17.48;100.00
42433;BME280;28071;48.232;20.668;2023-07-13T23:32:01;99581.69;;;17.41;100.00
42433;BME280;28071;48.232;20.668;2023-07-13T23:37:04;99545.03;;;17.19;100.00
42433;BME280;28071;48.232;20.668;2023-07-13T23:42:12;99571.94;;;17.25;100.00
42433;BME280;28071;48.232;20.668;2023-07-13T23:47:12;99559.44;;;17.03;100.00
42433;BME280;28071;48.232;20.668;2023-07-13T23:52:13;99572.66;;;17.15;100.00
42433;BME280;28071;48.232;20.668;2023-07-13T23:57:13;99577.50;;;17.13;100.00
